sensor_id;sensor_type;location;lat;lon;timestamp;P1;durP1;ratioP1;P2;durP2;ratioP2
22193;SDS011;11262;50.308;9.270;2022-12-07T00:01:05;29.27;;;13.50;;
22193;SDS011;11262;50.308;9.270;2022-12-07T00:03:32;29.77;;;13.77;;
22193;SDS011;11262;50.308;9.270;2022-12-07T00:05:58;31.90;;;14.53;;
22193;SDS011;11262;50.308;9.270;2022-12-07T00:08:25;34.83;;;14.50;;
22193;SDS011;11262;50.308;9.270;2022-12-07T00:10:50;35.87;;;15.90;;
22193;SDS011;11262;50.308;9.270;2022-12-07T00:13:16;29.50;;;12.70;;
22193;SDS011;11262;50.308;9.270;2022-12-07T00:15:42;31.87;;;13.97;;
22193;SDS011;11262;50.308;9.270;2022-12-07T00:18:07;32.07;;;13.53;;
22193;SDS011;11262;50.308;9.270;2022-12-07T00:20:33;34.57;;;13.80;;
22193;SDS011;11262;50.308;9.270;2022-12-07T00:22:59;31.97;;;14.87;;
22193;SDS011;11262;50.308;9.270;2022-12-07T00:25:24;31.23;;;13.90;;
22193;SDS011;11262;50.308;9.270;2022-12-07T00:27:52;31.27;;;13.73;;
22193;SDS011;11262;50.308;9.270;2022-12-07T00:30:20;31.33;;;13.80;;
22193;SDS011;11262;50.308;9.270;2022-12-07T00:32:46;29.50;;;13.70;;
22193;SDS011;11262;50.308;9.270;2022-12-07T00:35:11;32.43;;;13.97;;
22193;SDS011;11262;50.308;9.270;2022-12-07T00:37:37;32.73;;;13.23;;
22193;SDS011;11262;50.308;9.270;2022-12-07T00:40:03;31.80;;;13.97;;
22193;SDS011;11262;50.308;9.270;2022-12-07T00:42:29;34.07;;;13.90;;
22193;SDS011;11262;50.308;9.270;2022-12-07T00:44:55;30.80;;;13.63;;
22193;SDS011;11262;50.308;9.270;2022-12-07T00:47:21;34.60;;;14.97;;
22193;SDS011;11262;50.308;9.270;2022-12-07T00:49:46;30.93;;;13.87;;
22193;SDS011;11262;50.308;9.270;2022-12-07T00:52:12;35.37;;;15.03;;
22193;SDS011;11262;50.308;9.270;2022-12-07T00:54:37;32.67;;;14.40;;
22193;SDS011;11262;50.308;9.270;2022-12-07T00:57:03;33.93;;;14.87;;
22193;SDS011;11262;50.308;9.270;2022-12-07T00:59:28;33.83;;;15.40;;
22193;SDS011;11262;50.308;9.270;2022-12-07T01:01:54;34.00;;;14.73;;
22193;SDS011;11262;50.308;9.270;2022-12-07T01:04:19;36.00;;;16.77;;
22193;SDS011;11262;50.308;9.270;2022-12-07T01:06:45;32.40;;;14.13;;
22193;SDS011;11262;50.308;9.270;2022-12-07T01:09:11;32.70;;;14.27;;
22193;SDS011;11262;50.308;9.270;2022-12-07T01:11:36;36.07;;;15.23;;
22193;SDS011;11262;50.308;9.270;2022-12-07T01:14:02;37.10;;;16.27;;
22193;SDS011;11262;50.308;9.270;2022-12-07T01:16:28;30.67;;;13.67;;
22193;SDS011;11262;50.308;9.270;2022-12-07T01:18:56;26.13;;;12.37;;
22193;SDS011;11262;50.308;9.270;2022-12-07T01:21:24;33.53;;;14.67;;
22193;SDS011;11262;50.308;9.270;2022-12-07T01:23:51;33.57;;;14.60;;
22193;SDS011;11262;50.308;9.270;2022-12-07T01:26:19;31.87;;;14.57;;
22193;SDS011;11262;50.308;9.270;2022-12-07T01:28:47;31.77;;;14.37;;
22193;SDS011;11262;50.308;9.270;2022-12-07T01:31:15;34.30;;;14.77;;
22193;SDS011;11262;50.308;9.270;2022-12-07T01:33:46;19.37;;;9.40;;
22193;SDS011;11262;50.308;9.270;2022-12-07T01:38:39;33.47;;;15.27;;
22193;SDS011;11262;50.308;9.270;2022-12-07T01:41:05;26.20;;;12.97;;
22193;SDS011;11262;50.308;9.270;2022-12-07T01:43:32;34.87;;;14.70;;
22193;SDS011;11262;50.308;9.270;2022-12-07T01:45:58;36.63;;;15.30;;
22193;SDS011;11262;50.308;9.270;2022-12-07T01:48:28;35.97;;;15.27;;
22193;SDS011;11262;50.308;9.270;2022-12-07T01:51:05;37.73;;;16.07;;
22193;SDS011;11262;50.308;9.270;2022-12-07T01:53:35;30.80;;;13.97;;
22193;SDS011;11262;50.308;9.270;2022-12-07T01:56:03;34.50;;;16.13;;
22193;SDS011;11262;50.308;9.270;2022-12-07T01:58:30;31.80;;;14.30;;
22193;SDS011;11262;50.308;9.270;2022-12-07T02:00:56;37.13;;;16.83;;
22193;SDS011;11262;50.308;9.270;2022-12-07T02:03:22;42.27;;;18.30;;
22193;SDS011;11262;50.308;9.270;2022-12-07T02:05:56;38.10;;;16.57;;
22193;SDS011;11262;50.308;9.270;2022-12-07T02:08:24;39.53;;;17.03;;
22193;SDS011;11262;50.308;9.270;2022-12-07T02:10:50;29.83;;;14.00;;
22193;SDS011;11262;50.308;9.270;2022-12-07T02:13:19;36.43;;;15.40;;
22193;SDS011;11262;50.308;9.270;2022-12-07T02:16:12;36.33;;;16.50;;
22193;SDS011;11262;50.308;9.270;2022-12-07T02:21:27;34.97;;;17.37;;
22193;SDS011;11262;50.308;9.270;2022-12-07T02:26:59;40.40;;;16.57;;
22193;SDS011;11262;50.308;9.270;2022-12-07T02:29:49;38.07;;;16.60;;
22193;SDS011;11262;50.308;9.270;2022-12-07T02:32:26;36.83;;;15.40;;
22193;SDS011;11262;50.308;9.270;2022-12-07T02:35:07;38.43;;;16.17;;
22193;SDS011;11262;50.308;9.270;2022-12-07T02:37:49;43.43;;;18.37;;
22193;SDS011;11262;50.308;9.270;2022-12-07T02:43:07;35.53;;;15.77;;
22193;SDS011;11262;50.308;9.270;2022-12-07T02:45:52;39.67;;;16.63;;
22193;SDS011;11262;50.308;9.270;2022-12-07T02:48:21;38.77;;;16.93;;
22193;SDS011;11262;50.308;9.270;2022-12-07T02:50:50;34.40;;;15.20;;
22193;SDS011;11262;50.308;9.270;2022-12-07T02:53:30;37.93;;;16.60;;
22193;SDS011;11262;50.308;9.270;2022-12-07T02:56:02;36.10;;;15.60;;
22193;SDS011;11262;50.308;9.270;2022-12-07T03:03:44;41.10;;;17.77;;
22193;SDS011;11262;50.308;9.270;2022-12-07T03:06:20;23.93;;;11.30;;
22193;SDS011;11262;50.308;9.270;2022-12-07T03:09:19;37.83;;;15.10;;
22193;SDS011;11262;50.308;9.270;2022-12-07T03:11:51;30.73;;;13.17;;
22193;SDS011;11262;50.308;9.270;2022-12-07T03:14:41;34.27;;;15.57;;
22193;SDS011;11262;50.308;9.270;2022-12-07T03:17:16;30.63;;;14.10;;
22193;SDS011;11262;50.308;9.270;2022-12-07T03:19:46;36.17;;;16.03;;
22193;SDS011;11262;50.308;9.270;2022-12-07T03:22:14;34.60;;;15.13;;
22193;SDS011;11262;50.308;9.270;2022-12-07T03:24:48;36.97;;;16.93;;
22193;SDS011;11262;50.308;9.270;2022-12-07T03:27:19;28.30;;;13.63;;
22193;SDS011;11262;50.308;9.270;2022-12-07T03:29:54;34.27;;;16.07;;
22193;SDS011;11262;50.308;9.270;2022-12-07T03:32:27;37.00;;;15.50;;
22193;SDS011;11262;50.308;9.270;2022-12-07T03:37:34;36.03;;;15.70;;
22193;SDS011;11262;50.308;9.270;2022-12-07T03:40:10;26.90;;;12.17;;
22193;SDS011;11262;50.308;9.270;2022-12-07T03:42:42;31.83;;;13.63;;
22193;SDS011;11262;50.308;9.270;2022-12-07T03:45:08;36.87;;;15.63;;
22193;SDS011;11262;50.308;9.270;2022-12-07T03:53:09;32.27;;;13.80;;
22193;SDS011;11262;50.308;9.270;2022-12-07T03:55:41;38.17;;;15.27;;
22193;SDS011;11262;50.308;9.270;2022-12-07T03:58:11;34.77;;;16.07;;
22193;SDS011;11262;50.308;9.270;2022-12-07T04:00:40;20.73;;;9.73;;
22193;SDS011;11262;50.308;9.270;2022-12-07T04:03:07;28.50;;;12.00;;
22193;SDS011;11262;50.308;9.270;2022-12-07T04:05:32;32.47;;;13.37;;
22193;SDS011;11262;50.308;9.270;2022-12-07T04:07:58;33.30;;;15.40;;
22193;SDS011;11262;50.308;9.270;2022-12-07T04:10:24;34.37;;;14.33;;
22193;SDS011;11262;50.308;9.270;2022-12-07T04:12:49;34.23;;;15.67;;
22193;SDS011;11262;50.308;9.270;2022-12-07T04:15:15;40.10;;;18.20;;
22193;SDS011;11262;50.308;9.270;2022-12-07T04:17:40;34.13;;;15.40;;
22193;SDS011;11262;50.308;9.270;2022-12-07T04:20:06;33.77;;;14.20;;
22193;SDS011;11262;50.308;9.270;2022-12-07T04:22:32;35.33;;;14.40;;
22193;SDS011;11262;50.308;9.270;2022-12-07T04:24:58;33.07;;;15.47;;
22193;SDS011;11262;50.308;9.270;2022-12-07T04:27:23;37.73;;;16.63;;
22193;SDS011;11262;50.308;9.270;2022-12-07T04:29:49;38.67;;;16.20;;
22193;SDS011;11262;50.308;9.270;2022-12-07T04:32:15;39.07;;;15.93;;
22193;SDS011;11262;50.308;9.270;2022-12-07T04:34:40;28.43;;;12.67;;
22193;SDS011;11262;50.308;9.270;2022-12-07T04:37:06;24.00;;;10.77;;
22193;SDS011;11262;50.308;9.270;2022-12-07T04:39:32;36.17;;;16.10;;
22193;SDS011;11262;50.308;9.270;2022-12-07T04:41:58;34.80;;;16.33;;
22193;SDS011;11262;50.308;9.270;2022-12-07T04:46:57;35.33;;;15.50;;
22193;SDS011;11262;50.308;9.270;2022-12-07T04:49:23;37.90;;;17.00;;
22193;SDS011;11262;50.308;9.270;2022-12-07T04:51:49;39.97;;;15.90;;
22193;SDS011;11262;50.308;9.270;2022-12-07T04:54:16;42.93;;;15.97;;
22193;SDS011;11262;50.308;9.270;2022-12-07T04:56:42;29.73;;;11.87;;
22193;SDS011;11262;50.308;9.270;2022-12-07T04:59:09;30.33;;;13.97;;
22193;SDS011;11262;50.308;9.270;2022-12-07T05:01:36;33.87;;;14.67;;
22193;SDS011;11262;50.308;9.270;2022-12-07T05:04:01;26.93;;;12.87;;
22193;SDS011;11262;50.308;9.270;2022-12-07T05:06:27;31.43;;;14.23;;
22193;SDS011;11262;50.308;9.270;2022-12-07T05:08:53;37.73;;;17.97;;
22193;SDS011;11262;50.308;9.270;2022-12-07T05:11:18;32.87;;;14.60;;
22193;SDS011;11262;50.308;9.270;2022-12-07T05:14:03;43.63;;;19.93;;
22193;SDS011;11262;50.308;9.270;2022-12-07T05:16:30;39.57;;;18.17;;
22193;SDS011;11262;50.308;9.270;2022-12-07T05:18:56;32.67;;;14.80;;
22193;SDS011;11262;50.308;9.270;2022-12-07T05:21:22;35.53;;;15.17;;
22193;SDS011;11262;50.308;9.270;2022-12-07T05:23:48;37.20;;;16.63;;
22193;SDS011;11262;50.308;9.270;2022-12-07T05:26:14;20.07;;;9.67;;
22193;SDS011;11262;50.308;9.270;2022-12-07T05:28:39;35.40;;;15.63;;
22193;SDS011;11262;50.308;9.270;2022-12-07T05:31:05;36.33;;;15.87;;
22193;SDS011;11262;50.308;9.270;2022-12-07T05:33:31;35.97;;;16.27;;
22193;SDS011;11262;50.308;9.270;2022-12-07T05:35:56;36.30;;;14.37;;
22193;SDS011;11262;50.308;9.270;2022-12-07T05:38:22;27.23;;;11.70;;
22193;SDS011;11262;50.308;9.270;2022-12-07T05:40:49;37.80;;;15.50;;
22193;SDS011;11262;50.308;9.270;2022-12-07T05:43:15;32.70;;;12.93;;
22193;SDS011;11262;50.308;9.270;2022-12-07T05:45:41;28.20;;;12.93;;
22193;SDS011;11262;50.308;9.270;2022-12-07T05:48:06;32.83;;;14.93;;
22193;SDS011;11262;50.308;9.270;2022-12-07T05:50:32;34.03;;;14.10;;
22193;SDS011;11262;50.308;9.270;2022-12-07T05:52:57;35.77;;;15.73;;
22193;SDS011;11262;50.308;9.270;2022-12-07T05:55:23;38.73;;;15.33;;
22193;SDS011;11262;50.308;9.270;2022-12-07T05:57:49;30.90;;;13.73;;
22193;SDS011;11262;50.308;9.270;2022-12-07T06:00:33;36.40;;;15.70;;
22193;SDS011;11262;50.308;9.270;2022-12-07T06:02:58;33.13;;;14.83;;
22193;SDS011;11262;50.308;9.270;2022-12-07T06:05:24;26.50;;;11.37;;
22193;SDS011;11262;50.308;9.270;2022-12-07T06:07:49;29.83;;;14.10;;
22193;SDS011;11262;50.308;9.270;2022-12-07T06:10:15;33.67;;;14.57;;
22193;SDS011;11262;50.308;9.270;2022-12-07T06:12:41;30.67;;;14.40;;
22193;SDS011;11262;50.308;9.270;2022-12-07T06:15:08;34.20;;;15.53;;
22193;SDS011;11262;50.308;9.270;2022-12-07T06:17:35;28.70;;;13.37;;
22193;SDS011;11262;50.308;9.270;2022-12-07T06:20:01;32.43;;;14.93;;
22193;SDS011;11262;50.308;9.270;2022-12-07T06:22:27;28.17;;;12.37;;
22193;SDS011;11262;50.308;9.270;2022-12-07T06:24:53;34.13;;;16.33;;
22193;SDS011;11262;50.308;9.270;2022-12-07T06:27:19;28.93;;;14.67;;
22193;SDS011;11262;50.308;9.270;2022-12-07T06:29:44;33.87;;;15.93;;
22193;SDS011;11262;50.308;9.270;2022-12-07T06:32:10;38.87;;;15.50;;
22193;SDS011;11262;50.308;9.270;2022-12-07T06:34:37;38.07;;;16.47;;
22193;SDS011;11262;50.308;9.270;2022-12-07T06:37:03;33.23;;;14.30;;
22193;SDS011;11262;50.308;9.270;2022-12-07T06:39:29;31.60;;;15.60;;
22193;SDS011;11262;50.308;9.270;2022-12-07T06:41:55;36.57;;;15.53;;
22193;SDS011;11262;50.308;9.270;2022-12-07T06:44:21;32.53;;;13.40;;
22193;SDS011;11262;50.308;9.270;2022-12-07T06:46:48;34.13;;;14.93;;
22193;SDS011;11262;50.308;9.270;2022-12-07T06:49:14;35.67;;;16.43;;
22193;SDS011;11262;50.308;9.270;2022-12-07T06:51:40;31.50;;;15.13;;
22193;SDS011;11262;50.308;9.270;2022-12-07T06:54:10;34.73;;;15.20;;
22193;SDS011;11262;50.308;9.270;2022-12-07T06:56:37;39.43;;;18.57;;
22193;SDS011;11262;50.308;9.270;2022-12-07T06:59:03;41.97;;;17.73;;
22193;SDS011;11262;50.308;9.270;2022-12-07T07:01:31;25.43;;;11.57;;
22193;SDS011;11262;50.308;9.270;2022-12-07T07:03:57;33.37;;;15.07;;
22193;SDS011;11262;50.308;9.270;2022-12-07T07:06:23;34.17;;;16.53;;
22193;SDS011;11262;50.308;9.270;2022-12-07T07:08:49;37.90;;;13.77;;
22193;SDS011;11262;50.308;9.270;2022-12-07T07:11:14;32.90;;;15.67;;
22193;SDS011;11262;50.308;9.270;2022-12-07T07:13:40;31.90;;;15.03;;
22193;SDS011;11262;50.308;9.270;2022-12-07T07:16:06;28.33;;;13.63;;
22193;SDS011;11262;50.308;9.270;2022-12-07T07:18:32;27.77;;;11.67;;
22193;SDS011;11262;50.308;9.270;2022-12-07T07:20:58;31.37;;;13.93;;
22193;SDS011;11262;50.308;9.270;2022-12-07T07:23:24;32.67;;;14.40;;
22193;SDS011;11262;50.308;9.270;2022-12-07T07:25:50;28.27;;;12.60;;
22193;SDS011;11262;50.308;9.270;2022-12-07T07:28:16;32.80;;;14.93;;
22193;SDS011;11262;50.308;9.270;2022-12-07T07:30:41;34.60;;;14.90;;
22193;SDS011;11262;50.308;9.270;2022-12-07T07:33:08;38.43;;;16.47;;
22193;SDS011;11262;50.308;9.270;2022-12-07T07:35:34;28.83;;;12.83;;
22193;SDS011;11262;50.308;9.270;2022-12-07T07:38:00;35.27;;;16.37;;
22193;SDS011;11262;50.308;9.270;2022-12-07T07:40:27;29.63;;;14.17;;
22193;SDS011;11262;50.308;9.270;2022-12-07T07:42:54;28.47;;;12.93;;
22193;SDS011;11262;50.308;9.270;2022-12-07T07:45:20;28.53;;;13.20;;
22193;SDS011;11262;50.308;9.270;2022-12-07T07:47:48;31.63;;;14.53;;
22193;SDS011;11262;50.308;9.270;2022-12-07T07:50:14;33.57;;;14.53;;
22193;SDS011;11262;50.308;9.270;2022-12-07T07:52:41;32.00;;;14.23;;
22193;SDS011;11262;50.308;9.270;2022-12-07T07:55:07;31.57;;;14.67;;
22193;SDS011;11262;50.308;9.270;2022-12-07T07:57:33;29.30;;;13.57;;
22193;SDS011;11262;50.308;9.270;2022-12-07T08:00:00;33.40;;;15.27;;
22193;SDS011;11262;50.308;9.270;2022-12-07T08:02:25;35.93;;;14.70;;
22193;SDS011;11262;50.308;9.270;2022-12-07T08:04:54;35.40;;;14.07;;
22193;SDS011;11262;50.308;9.270;2022-12-07T08:07:20;42.37;;;15.97;;
22193;SDS011;11262;50.308;9.270;2022-12-07T08:09:45;35.10;;;15.17;;
22193;SDS011;11262;50.308;9.270;2022-12-07T08:12:11;33.07;;;14.20;;
22193;SDS011;11262;50.308;9.270;2022-12-07T08:14:37;27.30;;;11.83;;
22193;SDS011;11262;50.308;9.270;2022-12-07T08:17:02;28.00;;;12.27;;
22193;SDS011;11262;50.308;9.270;2022-12-07T08:19:28;25.13;;;11.93;;
22193;SDS011;11262;50.308;9.270;2022-12-07T08:21:54;27.37;;;12.63;;
22193;SDS011;11262;50.308;9.270;2022-12-07T08:24:20;27.30;;;12.00;;
22193;SDS011;11262;50.308;9.270;2022-12-07T08:26:46;22.90;;;11.23;;
22193;SDS011;11262;50.308;9.270;2022-12-07T08:29:13;27.17;;;12.57;;
22193;SDS011;11262;50.308;9.270;2022-12-07T08:31:38;27.13;;;12.90;;
22193;SDS011;11262;50.308;9.270;2022-12-07T08:34:04;27.37;;;12.77;;
22193;SDS011;11262;50.308;9.270;2022-12-07T08:36:30;26.90;;;12.23;;
22193;SDS011;11262;50.308;9.270;2022-12-07T08:38:55;26.47;;;11.43;;
22193;SDS011;11262;50.308;9.270;2022-12-07T08:41:21;30.73;;;13.47;;
22193;SDS011;11262;50.308;9.270;2022-12-07T08:43:46;30.07;;;13.33;;
22193;SDS011;11262;50.308;9.270;2022-12-07T08:48:47;33.53;;;14.60;;
22193;SDS011;11262;50.308;9.270;2022-12-07T08:51:26;33.10;;;14.40;;
22193;SDS011;11262;50.308;9.270;2022-12-07T08:53:52;30.37;;;13.83;;
22193;SDS011;11262;50.308;9.270;2022-12-07T08:56:19;33.00;;;14.97;;
22193;SDS011;11262;50.308;9.270;2022-12-07T08:58:45;30.30;;;14.80;;
22193;SDS011;11262;50.308;9.270;2022-12-07T09:01:11;35.13;;;16.20;;
22193;SDS011;11262;50.308;9.270;2022-12-07T09:03:36;35.50;;;15.87;;
22193;SDS011;11262;50.308;9.270;2022-12-07T09:06:02;35.73;;;14.93;;
22193;SDS011;11262;50.308;9.270;2022-12-07T09:08:29;37.87;;;15.40;;
22193;SDS011;11262;50.308;9.270;2022-12-07T09:10:59;32.13;;;14.40;;
22193;SDS011;11262;50.308;9.270;2022-12-07T09:13:25;32.23;;;14.33;;
22193;SDS011;11262;50.308;9.270;2022-12-07T09:15:51;27.83;;;12.07;;
22193;SDS011;11262;50.308;9.270;2022-12-07T09:18:16;34.93;;;13.73;;
22193;SDS011;11262;50.308;9.270;2022-12-07T09:20:42;36.40;;;15.47;;
22193;SDS011;11262;50.308;9.270;2022-12-07T09:23:07;27.27;;;12.13;;
22193;SDS011;11262;50.308;9.270;2022-12-07T09:25:34;31.27;;;14.20;;
22193;SDS011;11262;50.308;9.270;2022-12-07T09:28:00;34.77;;;17.00;;
22193;SDS011;11262;50.308;9.270;2022-12-07T09:30:26;36.80;;;15.63;;
22193;SDS011;11262;50.308;9.270;2022-12-07T09:32:53;28.13;;;12.13;;
22193;SDS011;11262;50.308;9.270;2022-12-07T09:35:19;35.53;;;15.97;;
22193;SDS011;11262;50.308;9.270;2022-12-07T09:37:45;36.63;;;17.07;;
22193;SDS011;11262;50.308;9.270;2022-12-07T09:40:11;36.37;;;16.87;;
22193;SDS011;11262;50.308;9.270;2022-12-07T09:42:38;36.20;;;15.40;;
22193;SDS011;11262;50.308;9.270;2022-12-07T09:45:10;41.23;;;18.80;;
22193;SDS011;11262;50.308;9.270;2022-12-07T09:47:40;32.53;;;14.87;;
22193;SDS011;11262;50.308;9.270;2022-12-07T09:50:10;36.03;;;16.83;;
22193;SDS011;11262;50.308;9.270;2022-12-07T09:52:38;36.80;;;15.77;;
22193;SDS011;11262;50.308;9.270;2022-12-07T09:55:12;39.77;;;18.50;;
22193;SDS011;11262;50.308;9.270;2022-12-07T09:57:40;30.83;;;13.43;;
22193;SDS011;11262;50.308;9.270;2022-12-07T10:00:12;35.83;;;16.40;;
22193;SDS011;11262;50.308;9.270;2022-12-07T10:03:01;37.43;;;18.90;;
22193;SDS011;11262;50.308;9.270;2022-12-07T10:05:28;38.47;;;16.57;;
22193;SDS011;11262;50.308;9.270;2022-12-07T10:07:55;41.67;;;17.53;;
22193;SDS011;11262;50.308;9.270;2022-12-07T10:10:26;39.50;;;17.70;;
22193;SDS011;11262;50.308;9.270;2022-12-07T10:12:56;37.93;;;17.00;;
22193;SDS011;11262;50.308;9.270;2022-12-07T10:21:00;39.77;;;17.17;;
22193;SDS011;11262;50.308;9.270;2022-12-07T10:23:32;37.47;;;16.30;;
22193;SDS011;11262;50.308;9.270;2022-12-07T10:25:59;33.80;;;15.63;;
22193;SDS011;11262;50.308;9.270;2022-12-07T10:28:44;35.57;;;17.03;;
22193;SDS011;11262;50.308;9.270;2022-12-07T10:31:17;42.97;;;18.50;;
22193;SDS011;11262;50.308;9.270;2022-12-07T10:33:52;38.90;;;16.77;;
22193;SDS011;11262;50.308;9.270;2022-12-07T10:41:16;36.03;;;17.10;;
22193;SDS011;11262;50.308;9.270;2022-12-07T10:43:49;35.63;;;15.03;;
22193;SDS011;11262;50.308;9.270;2022-12-07T10:49:25;34.63;;;14.80;;
22193;SDS011;11262;50.308;9.270;2022-12-07T10:52:18;34.87;;;14.67;;
22193;SDS011;11262;50.308;9.270;2022-12-07T10:55:10;35.33;;;16.23;;
22193;SDS011;11262;50.308;9.270;2022-12-07T11:00:50;34.57;;;15.93;;
22193;SDS011;11262;50.308;9.270;2022-12-07T11:06:10;32.10;;;12.77;;
22193;SDS011;11262;50.308;9.270;2022-12-07T11:11:18;27.70;;;13.67;;
22193;SDS011;11262;50.308;9.270;2022-12-07T11:28:39;37.47;;;14.83;;
22193;SDS011;11262;50.308;9.270;2022-12-07T11:31:08;36.10;;;14.17;;
22193;SDS011;11262;50.308;9.270;2022-12-07T11:33:57;33.60;;;13.17;;
22193;SDS011;11262;50.308;9.270;2022-12-07T11:36:33;33.00;;;13.30;;
22193;SDS011;11262;50.308;9.270;2022-12-07T11:42:01;23.97;;;11.90;;
22193;SDS011;11262;50.308;9.270;2022-12-07T11:44:55;26.77;;;12.63;;
22193;SDS011;11262;50.308;9.270;2022-12-07T11:47:35;20.80;;;8.50;;
22193;SDS011;11262;50.308;9.270;2022-12-07T11:55:50;25.77;;;10.70;;
22193;SDS011;11262;50.308;9.270;2022-12-07T12:01:26;22.53;;;10.27;;
22193;SDS011;11262;50.308;9.270;2022-12-07T12:04:01;18.40;;;8.60;;
22193;SDS011;11262;50.308;9.270;2022-12-07T12:06:29;22.87;;;10.40;;
22193;SDS011;11262;50.308;9.270;2022-12-07T12:08:56;22.47;;;8.73;;
22193;SDS011;11262;50.308;9.270;2022-12-07T12:20:17;20.43;;;7.50;;
22193;SDS011;11262;50.308;9.270;2022-12-07T12:33:48;17.40;;;8.43;;
22193;SDS011;11262;50.308;9.270;2022-12-07T12:36:21;15.83;;;7.23;;
22193;SDS011;11262;50.308;9.270;2022-12-07T12:39:14;20.50;;;8.33;;
22193;SDS011;11262;50.308;9.270;2022-12-07T12:46:48;18.20;;;7.80;;
22193;SDS011;11262;50.308;9.270;2022-12-07T12:51:52;23.10;;;9.47;;
22193;SDS011;11262;50.308;9.270;2022-12-07T12:54:22;31.50;;;11.43;;
22193;SDS011;11262;50.308;9.270;2022-12-07T12:56:58;18.47;;;8.60;;
22193;SDS011;11262;50.308;9.270;2022-12-07T12:59:42;17.40;;;7.30;;
22193;SDS011;11262;50.308;9.270;2022-12-07T13:02:24;19.70;;;8.40;;
22193;SDS011;11262;50.308;9.270;2022-12-07T13:15:41;14.37;;;7.20;;
22193;SDS011;11262;50.308;9.270;2022-12-07T13:20:54;15.67;;;7.43;;
22193;SDS011;11262;50.308;9.270;2022-12-07T13:28:51;24.27;;;8.47;;
22193;SDS011;11262;50.308;9.270;2022-12-07T13:36:55;17.17;;;7.03;;
22193;SDS011;11262;50.308;9.270;2022-12-07T13:39:22;18.00;;;7.37;;
22193;SDS011;11262;50.308;9.270;2022-12-07T13:41:50;18.85;;;8.40;;
22193;SDS011;11262;50.308;9.270;2022-12-07T13:44:22;16.43;;;7.40;;
22193;SDS011;11262;50.308;9.270;2022-12-07T13:46:51;21.77;;;9.17;;
22193;SDS011;11262;50.308;9.270;2022-12-07T13:49:30;12.87;;;6.00;;
22193;SDS011;11262;50.308;9.270;2022-12-07T13:57:31;21.97;;;7.23;;
22193;SDS011;11262;50.308;9.270;2022-12-07T14:00:00;17.27;;;7.83;;
22193;SDS011;11262;50.308;9.270;2022-12-07T14:02:31;16.03;;;6.27;;
22193;SDS011;11262;50.308;9.270;2022-12-07T14:05:33;11.83;;;6.13;;
22193;SDS011;11262;50.308;9.270;2022-12-07T14:07:56;10.33;;;5.67;;
22193;SDS011;11262;50.308;9.270;2022-12-07T14:12:57;10.33;;;5.20;;
22193;SDS011;11262;50.308;9.270;2022-12-07T14:15:24;8.63;;;4.40;;
22193;SDS011;11262;50.308;9.270;2022-12-07T14:17:53;7.60;;;4.70;;
22193;SDS011;11262;50.308;9.270;2022-12-07T14:20:33;12.03;;;4.93;;
22193;SDS011;11262;50.308;9.270;2022-12-07T14:23:02;10.27;;;5.10;;
22193;SDS011;11262;50.308;9.270;2022-12-07T14:25:44;9.87;;;5.00;;
22193;SDS011;11262;50.308;9.270;2022-12-07T14:31:13;12.07;;;4.97;;
22193;SDS011;11262;50.308;9.270;2022-12-07T14:33:41;9.93;;;4.33;;
22193;SDS011;11262;50.308;9.270;2022-12-07T14:36:10;8.70;;;4.30;;
22193;SDS011;11262;50.308;9.270;2022-12-07T14:38:37;11.57;;;4.80;;
22193;SDS011;11262;50.308;9.270;2022-12-07T14:41:03;11.73;;;5.00;;
22193;SDS011;11262;50.308;9.270;2022-12-07T14:44:00;9.83;;;5.57;;
22193;SDS011;11262;50.308;9.270;2022-12-07T14:46:25;10.73;;;5.90;;
22193;SDS011;11262;50.308;9.270;2022-12-07T14:48:51;22.67;;;8.83;;
22193;SDS011;11262;50.308;9.270;2022-12-07T14:51:16;12.90;;;5.20;;
22193;SDS011;11262;50.308;9.270;2022-12-07T14:53:43;8.40;;;5.27;;
22193;SDS011;11262;50.308;9.270;2022-12-07T14:56:12;12.83;;;4.60;;
22193;SDS011;11262;50.308;9.270;2022-12-07T14:58:38;14.87;;;5.60;;
22193;SDS011;11262;50.308;9.270;2022-12-07T15:01:05;11.47;;;5.40;;
22193;SDS011;11262;50.308;9.270;2022-12-07T15:03:30;12.03;;;5.70;;
22193;SDS011;11262;50.308;9.270;2022-12-07T15:05:56;16.77;;;5.93;;
22193;SDS011;11262;50.308;9.270;2022-12-07T15:08:22;18.97;;;6.23;;
22193;SDS011;11262;50.308;9.270;2022-12-07T15:10:49;17.53;;;6.50;;
22193;SDS011;11262;50.308;9.270;2022-12-07T15:13:14;14.47;;;6.83;;
22193;SDS011;11262;50.308;9.270;2022-12-07T15:15:59;18.53;;;7.43;;
22193;SDS011;11262;50.308;9.270;2022-12-07T15:18:25;19.07;;;7.63;;
22193;SDS011;11262;50.308;9.270;2022-12-07T15:20:50;18.23;;;7.10;;
22193;SDS011;11262;50.308;9.270;2022-12-07T15:23:16;14.90;;;6.70;;
22193;SDS011;11262;50.308;9.270;2022-12-07T15:25:43;17.70;;;7.03;;
22193;SDS011;11262;50.308;9.270;2022-12-07T15:28:09;19.33;;;7.20;;
22193;SDS011;11262;50.308;9.270;2022-12-07T15:30:38;16.60;;;7.10;;
22193;SDS011;11262;50.308;9.270;2022-12-07T15:33:08;18.80;;;7.17;;
22193;SDS011;11262;50.308;9.270;2022-12-07T15:35:38;15.07;;;6.33;;
22193;SDS011;11262;50.308;9.270;2022-12-07T15:38:07;17.07;;;7.27;;
22193;SDS011;11262;50.308;9.270;2022-12-07T15:40:33;14.13;;;7.67;;
22193;SDS011;11262;50.308;9.270;2022-12-07T15:42:59;19.83;;;8.30;;
22193;SDS011;11262;50.308;9.270;2022-12-07T15:45:26;12.50;;;6.83;;
22193;SDS011;11262;50.308;9.270;2022-12-07T15:47:51;14.27;;;7.53;;
22193;SDS011;11262;50.308;9.270;2022-12-07T15:50:17;17.33;;;6.73;;
22193;SDS011;11262;50.308;9.270;2022-12-07T15:52:43;14.30;;;6.53;;
22193;SDS011;11262;50.308;9.270;2022-12-07T15:55:09;22.57;;;8.33;;
22193;SDS011;11262;50.308;9.270;2022-12-07T15:57:36;13.63;;;7.17;;
22193;SDS011;11262;50.308;9.270;2022-12-07T16:00:03;12.93;;;6.60;;
22193;SDS011;11262;50.308;9.270;2022-12-07T16:02:33;15.37;;;6.90;;
22193;SDS011;11262;50.308;9.270;2022-12-07T16:05:00;20.10;;;8.23;;
22193;SDS011;11262;50.308;9.270;2022-12-07T16:07:26;19.43;;;8.77;;
22193;SDS011;11262;50.308;9.270;2022-12-07T16:09:52;17.13;;;8.07;;
22193;SDS011;11262;50.308;9.270;2022-12-07T16:12:17;16.43;;;7.70;;
22193;SDS011;11262;50.308;9.270;2022-12-07T16:14:43;13.70;;;7.40;;
22193;SDS011;11262;50.308;9.270;2022-12-07T16:17:09;14.97;;;6.23;;
22193;SDS011;11262;50.308;9.270;2022-12-07T16:19:35;10.63;;;6.87;;
22193;SDS011;11262;50.308;9.270;2022-12-07T16:22:02;14.43;;;6.70;;
22193;SDS011;11262;50.308;9.270;2022-12-07T16:24:28;12.40;;;7.73;;
22193;SDS011;11262;50.308;9.270;2022-12-07T16:26:54;16.07;;;7.93;;
22193;SDS011;11262;50.308;9.270;2022-12-07T16:29:21;17.13;;;8.70;;
22193;SDS011;11262;50.308;9.270;2022-12-07T16:31:47;17.23;;;8.27;;
22193;SDS011;11262;50.308;9.270;2022-12-07T16:34:13;25.63;;;8.80;;
22193;SDS011;11262;50.308;9.270;2022-12-07T16:36:38;17.67;;;8.40;;
22193;SDS011;11262;50.308;9.270;2022-12-07T16:39:04;18.50;;;8.07;;
22193;SDS011;11262;50.308;9.270;2022-12-07T16:41:30;18.10;;;9.13;;
22193;SDS011;11262;50.308;9.270;2022-12-07T16:43:56;17.93;;;8.10;;
22193;SDS011;11262;50.308;9.270;2022-12-07T16:46:22;17.47;;;8.27;;
22193;SDS011;11262;50.308;9.270;2022-12-07T16:48:47;17.30;;;8.87;;
22193;SDS011;11262;50.308;9.270;2022-12-07T16:51:14;17.93;;;8.00;;
22193;SDS011;11262;50.308;9.270;2022-12-07T16:53:40;22.37;;;8.37;;
22193;SDS011;11262;50.308;9.270;2022-12-07T16:56:13;16.30;;;7.90;;